| time (UTC) | temp F | wind direction | speed MPH | gust MPH | rain 1hr in | rain 24hr in | rain mn in | humidity % | barometer mb |
| 20260903001555 | 84 | 214 | 3.0 | 5.0 | 0.00 | 0.00 | 0.00 | 78 | 1013.1 |
| 20260903000054 | 84 | 183 | 2.0 | 4.0 | 0.00 | 0.00 | 0.00 | 78 | 1013.3 |
| 20260902234553 | 85 | 205 | 2.0 | 5.0 | 0.00 | 0.00 | 0.00 | 78 | 1013.2 |
| 20260902233102 | 86 | 216 | 2.0 | 6.0 | 0.00 | 0.00 | 0.00 | 76 | 1013.3 |
| 20260902231552 | 87 | 243 | 3.0 | 5.0 | 0.00 | 0.00 | 0.00 | 74 | 1013.4 |
| 20260902230059 | 87 | 225 | 3.0 | 7.0 | 0.00 | 0.00 | 0.00 | 73 | 1013.3 |
| 20260902224555 | 88 | 221 | 3.0 | 7.0 | 0.00 | 0.00 | 0.00 | 71 | 1013.4 |
| 20260902223104 | 89 | 217 | 5.0 | 9.0 | 0.00 | 0.00 | 0.00 | 70 | 1013.4 |
| 20260902221549 | 89 | 200 | 6.0 | 12.0 | 0.00 | 0.00 | 0.00 | 68 | 1013.4 |
| 20260902220053 | 90 | 215 | 4.0 | 12.0 | 0.00 | 0.00 | 0.00 | 68 | 1013.4 |
| 20260902214552 | 90 | 225 | 5.0 | 11.0 | 0.00 | 0.00 | 0.00 | 67 | 1013.4 |
| 20260902213048 | 90 | 225 | 6.0 | 12.0 | 0.00 | 0.00 | 0.00 | 66 | 1013.4 |
| 20260902211547 | 90 | 252 | 8.0 | 16.0 | 0.00 | 0.00 | 0.00 | 64 | 1013.5 |
| 20260902210046 | 91 | 240 | 6.0 | 11.0 | 0.00 | 0.00 | 0.00 | 63 | 1013.5 |
| 20260902204610 | 91 | 211 | 6.0 | 10.0 | 0.00 | 0.00 | 0.00 | 64 | 1013.6 |
| 20260902203044 | 91 | 239 | 9.0 | 11.0 | 0.00 | 0.00 | 0.00 | 64 | 1013.7 |
| 20260902201543 | 91 | 234 | 6.0 | 10.0 | 0.00 | 0.00 | 0.00 | 65 | 1013.9 |
| 20260902200042 | 91 | 234 | 10.0 | 14.0 | 0.00 | 0.00 | 0.00 | 61 | 1014.0 |
| 20260902194538 | 91 | 234 | 8.0 | 14.0 | 0.00 | 0.00 | 0.00 | 62 | 1014.0 |
| 20260902193037 | 91 | 252 | 8.0 | 12.0 | 0.00 | 0.00 | 0.00 | 61 | 1014.2 |
| 20260902191535 | 91 | 194 | 8.0 | 12.0 | 0.00 | 0.00 | 0.00 | 64 | 1014.4 |
| 20260902190036 | 90 | 223 | 7.0 | 12.0 | 0.00 | 0.00 | 0.00 | 64 | 1014.4 |
| 20260902184536 | 90 | 194 | 8.0 | 12.0 | 0.00 | 0.00 | 0.00 | 64 | 1014.4 |
| 20260902183051 | 90 | 210 | 9.0 | 13.0 | 0.00 | 0.00 | 0.00 | 64 | 1014.4 |
| 20260902181530 | 90 | 181 | 6.0 | 10.0 | 0.00 | 0.00 | 0.00 | 65 | 1014.7 |
| 20260902180029 | 90 | 221 | 6.0 | 10.0 | 0.00 | 0.00 | 0.00 | 65 | 1014.7 |
| 20260902174528 | 89 | 166 | 6.0 | 11.0 | 0.00 | 0.00 | 0.00 | 65 | 1014.9 |
| 20260902173028 | 89 | 194 | 6.0 | 11.0 | 0.00 | 0.00 | 0.00 | 65 | 1015.1 |
| 20260902171522 | 88 | 216 | 6.0 | 10.0 | 0.00 | 0.00 | 0.00 | 68 | 1015.2 |
| 20260902170020 | 88 | 212 | 6.0 | 10.0 | 0.00 | 0.00 | 0.00 | 71 | 1015.3 |
| 20260902164523 | 87 | 250 | 7.0 | 10.0 | 0.00 | 0.00 | 0.00 | 70 | 1015.4 |
| 20260902163014 | 87 | 225 | 5.0 | 9.0 | 0.00 | 0.00 | 0.00 | 73 | 1015.4 |
| 20260902161511 | 86 | 210 | 4.0 | 10.0 | 0.00 | 0.00 | 0.00 | 72 | 1015.7 |
| 20260902160009 | 86 | 189 | 5.0 | 9.0 | 0.00 | 0.00 | 0.00 | 72 | 1015.7 |
| 20260902154503 | 86 | 212 | 5.0 | 11.0 | 0.00 | 0.00 | 0.00 | 71 | 1015.8 |
| 20260902153107 | 85 | 254 | 6.0 | 10.0 | 0.00 | 0.00 | 0.00 | 75 | 1015.8 |
| 20260902151555 | 84 | 211 | 6.0 | 10.0 | 0.00 | 0.00 | 0.00 | 73 | 1015.7 |
| 20260902150050 | 84 | 243 | 7.0 | 12.0 | 0.00 | 0.00 | 0.00 | 74 | 1015.8 |
| 20260902144547 | 83 | 248 | 6.0 | 12.0 | 0.00 | 0.00 | 0.00 | 73 | 1015.8 |
| 20260902143047 | 82 | 238 | 6.0 | 13.0 | 0.00 | 0.00 | 0.00 | 75 | 1015.8 |
| 20260902141538 | 81 | 236 | 7.0 | 10.0 | 0.00 | 0.00 | 0.00 | 76 | 1015.7 |
| 20260902140033 | 81 | 228 | 5.0 | 9.0 | 0.00 | 0.00 | 0.00 | 79 | 1015.6 |
| 20260902134530 | 80 | 236 | 3.0 | 9.0 | 0.00 | 0.00 | 0.00 | 79 | 1015.8 |
| 20260902133028 | 79 | 196 | 5.0 | 10.0 | 0.00 | 0.00 | 0.00 | 80 | 1015.8 |
| 20260902131523 | 77 | 232 | 4.0 | 7.0 | 0.00 | 0.00 | 0.00 | 85 | 1016.1 |
| 20260902130016 | 76 | 215 | 3.0 | 6.0 | 0.00 | 0.00 | 0.00 | 85 | 1016.2 |
| 20260902124513 | 75 | 218 | 2.0 | 4.0 | 0.00 | 0.00 | 0.00 | 87 | 1016.2 |
| 20260902123008 | 74 | 218 | 2.0 | 4.0 | 0.00 | 0.00 | 0.00 | 88 | 1016.2 |
| 20260902121503 | 73 | 229 | 2.0 | 5.0 | 0.00 | 0.00 | 0.00 | 89 | 1016.1 |
| 20260902120059 | 72 | 360 | 2.0 | 4.0 | 0.00 | 0.00 | 0.00 | 89 | 1016.2 |
| 20260902114557 | 72 | 360 | 2.0 | 4.0 | 0.00 | 0.00 | 0.00 | 89 | 1016.1 |
| 20260902113056 | 72 | 360 | 2.0 | 3.0 | 0.00 | 0.00 | 0.00 | 90 | 1016.0 |
| 20260902111555 | 72 | 360 | 2.0 | 3.0 | 0.00 | 0.00 | 0.00 | 90 | 1015.9 |
| 20260902110058 | 72 | 360 | 1.0 | 3.0 | 0.00 | 0.00 | 0.00 | 91 | 1015.8 |
| 20260902104604 | 72 | 360 | 1.0 | 3.0 | 0.00 | 0.00 | 0.00 | 91 | 1015.7 |
| 20260902103105 | 72 | 360 | 0.0 | 2.0 | 0.00 | 0.00 | 0.00 | 91 | 1015.6 |
| 20260902101556 | 72 | 360 | 0.0 | 2.0 | 0.00 | 0.00 | 0.00 | 91 | 1015.4 |
| 20260902100046 | 72 | 360 | 1.0 | 3.0 | 0.00 | 0.00 | 0.00 | 91 | 1015.4 |
| 20260902094544 | 72 | 360 | 1.0 | 2.0 | 0.00 | 0.00 | 0.00 | 90 | 1015.2 |
| 20260902093042 | 73 | 360 | 1.0 | 3.0 | 0.00 | 0.00 | 0.00 | 90 | 1015.1 |
| 20260902091542 | 73 | 360 | 2.0 | 3.0 | 0.00 | 0.00 | 0.00 | 90 | 1015.2 |
| 20260902090042 | 73 | 360 | 1.0 | 3.0 | 0.00 | 0.00 | 0.00 | 89 | 1015.1 |
| 20260902084542 | 74 | 360 | 1.0 | 5.0 | 0.00 | 0.00 | 0.00 | 89 | 1015.1 |
| 20260902083044 | 74 | 360 | 0.0 | 1.0 | 0.00 | 0.00 | 0.00 | 90 | 1015.1 |
| 20260902081538 | 74 | 360 | 0.0 | 1.0 | 0.00 | 0.00 | 0.00 | 91 | 1015.1 |
| 20260902080039 | 73 | 360 | 0.0 | 0.0 | 0.00 | 0.00 | 0.00 | 91 | 1015.1 |
| 20260902074536 | 74 | 360 | 0.0 | 3.0 | 0.00 | 0.00 | 0.00 | 90 | 1015.1 |
| 20260902073035 | 74 | 360 | 1.0 | 3.0 | 0.00 | 0.00 | 0.00 | 90 | 1015.2 |
| 20260902071533 | 74 | 360 | 1.0 | 3.0 | 0.00 | 0.00 | 0.00 | 89 | 1015.0 |
| 20260902070032 | 75 | 360 | 1.0 | 3.0 | 0.00 | 0.00 | 0.00 | 89 | 1015.0 |
| 20260902064532 | 75 | 360 | 1.0 | 4.0 | 0.00 | 0.00 | 0.00 | 88 | 1015.0 |
| 20260902063050 | 75 | 360 | 1.0 | 3.0 | 0.00 | 0.00 | 0.00 | 88 | 1014.9 |
| 20260902061550 | 75 | 360 | 2.0 | 3.0 | 0.00 | 0.00 | 0.00 | 89 | 1015.0 |
| 20260902060037 | 75 | 360 | 0.0 | 0.0 | 0.00 | 0.00 | 0.00 | 88 | 1015.1 |
| 20260902054528 | 76 | 360 | 0.0 | 2.0 | 0.00 | 0.00 | 0.00 | 87 | 1015.1 |
| 20260902053026 | 76 | 360 | 1.0 | 3.0 | 0.00 | 0.00 | 0.00 | 87 | 1015.1 |
| 20260902051522 | 77 | 360 | 2.0 | 3.0 | 0.00 | 0.00 | 0.00 | 87 | 1015.1 |
| 20260902050023 | 77 | 360 | 0.0 | 3.0 | 0.00 | 0.00 | 0.00 | 88 | 1015.1 |
| 20260902044536 | 77 | 360 | 2.0 | 4.0 | 0.00 | 0.00 | 0.00 | 87 | 1015.0 |
| 20260902043017 | 77 | 360 | 2.0 | 4.0 | 0.00 | 0.00 | 0.00 | 87 | 1015.1 |
| 20260902041518 | 78 | 360 | 2.0 | 4.0 | 0.00 | 0.00 | 0.00 | 87 | 1015.0 |
| 20260902040015 | 78 | 360 | 2.0 | 4.0 | 0.00 | 0.00 | 0.00 | 86 | 1015.0 |
| 20260902034514 | 78 | 360 | 2.0 | 3.0 | 0.00 | 0.00 | 0.00 | 87 | 1014.9 |
| 20260902033013 | 78 | 360 | 2.0 | 3.0 | 0.00 | 0.00 | 0.00 | 86 | 1015.0 |
| 20260902031532 | 78 | 360 | 1.0 | 4.0 | 0.00 | 0.00 | 0.00 | 85 | 1014.9 |
| 20260902030011 | 79 | 210 | 1.0 | 3.0 | 0.00 | 0.00 | 0.00 | 85 | 1014.8 |
| 20260902024511 | 79 | 225 | 1.0 | 4.0 | 0.00 | 0.00 | 0.00 | 85 | 1014.8 |
| 20260902023020 | 80 | 225 | 1.0 | 3.0 | 0.00 | 0.00 | 0.00 | 85 | 1014.9 |
| 20260902021510 | 80 | 226 | 1.0 | 3.0 | 0.00 | 0.00 | 0.00 | 87 | 1014.9 |
| 20260902020010 | 80 | 226 | 1.0 | 2.0 | 0.00 | 0.00 | 0.00 | 87 | 1014.8 |
| 20260902014514 | 80 | 226 | 0.0 | 2.0 | 0.00 | 0.00 | 0.00 | 86 | 1014.9 |
| 20260902013009 | 81 | 226 | 1.0 | 2.0 | 0.00 | 0.00 | 0.00 | 84 | 1014.8 |
| 20260902011511 | 82 | 226 | 1.0 | 3.0 | 0.00 | 0.00 | 0.00 | 82 | 1014.6 |
| 20260902010008 | 82 | 226 | 1.0 | 3.0 | 0.00 | 0.00 | 0.00 | 82 | 1014.6 |
| 20260902004508 | 82 | 226 | 1.0 | 3.0 | 0.00 | 0.00 | 0.00 | 83 | 1014.5 |
| 20260902003007 | 83 | 226 | 0.0 | 3.0 | 0.00 | 0.00 | 0.00 | 81 | 1014.5 |